createdAt,value
2016-12-29T00:00:01.464Z,5.1
2016-12-29T00:00:11.458Z,5
2016-12-29T00:00:21.448Z,5
2016-12-29T00:00:31.446Z,5
2016-12-29T00:00:41.435Z,5
2016-12-29T00:00:51.430Z,5
2016-12-29T00:01:01.425Z,5
2016-12-29T00:01:11.420Z,5
2016-12-29T00:01:21.412Z,5
2016-12-29T00:01:31.406Z,5
2016-12-29T00:01:41.396Z,5
2016-12-29T00:01:51.397Z,5
2016-12-29T00:02:01.386Z,5
2016-12-29T00:02:11.386Z,5
2016-12-29T00:02:21.374Z,4.9
2016-12-29T00:02:31.368Z,5
2016-12-29T00:02:41.362Z,4.9
2016-12-29T00:02:51.355Z,4.9
2016-12-29T00:03:01.343Z,4.9
2016-12-29T00:03:11.350Z,4.9
2016-12-29T00:03:21.338Z,4.9
2016-12-29T00:03:31.329Z,4.9
2016-12-29T00:03:41.459Z,4.9
2016-12-29T00:03:51.317Z,4.9
2016-12-29T00:04:01.310Z,4.9
2016-12-29T00:04:11.304Z,4.9
2016-12-29T00:04:21.297Z,4.9
2016-12-29T00:04:31.295Z,4.9
2016-12-29T00:04:41.311Z,4.9
2016-12-29T00:04:51.279Z,4.9
2016-12-29T00:05:01.276Z,4.9
2016-12-29T00:05:11.265Z,4.9
2016-12-29T00:05:21.279Z,4.8
2016-12-29T00:05:31.249Z,4.8
2016-12-29T00:05:41.243Z,4.8
2016-12-29T00:05:51.243Z,4.8
2016-12-29T00:06:01.235Z,4.8
2016-12-29T00:06:11.224Z,4.8
2016-12-29T00:06:21.354Z,4.8
2016-12-29T00:06:31.211Z,4.8
2016-12-29T00:06:41.208Z,4.8
2016-12-29T00:06:51.201Z,4.8
2016-12-29T00:07:01.198Z,4.8
2016-12-29T00:07:11.186Z,4.8
2016-12-29T00:07:21.207Z,4.8
2016-12-29T00:07:31.177Z,4.8
2016-12-29T00:07:41.166Z,4.8
2016-12-29T00:07:51.161Z,4.8
2016-12-29T00:08:01.285Z,4.8
2016-12-29T00:08:11.152Z,4.8
2016-12-29T00:08:21.144Z,4.8
2016-12-29T00:08:31.137Z,4.8
2016-12-29T00:08:41.129Z,4.8
2016-12-29T00:08:51.152Z,4.8
2016-12-29T00:09:01.119Z,4.7
2016-12-29T00:09:11.110Z,4.7
2016-12-29T00:09:21.105Z,4.7
2016-12-29T00:09:31.123Z,4.7
2016-12-29T00:09:41.092Z,4.7
2016-12-29T00:09:51.083Z,4.7
2016-12-29T00:10:01.079Z,4.7
2016-12-29T00:10:11.072Z,4.7
2016-12-29T00:10:21.064Z,4.7
2016-12-29T00:10:31.060Z,4.7
2016-12-29T00:10:41.052Z,4.6
2016-12-29T00:10:51.050Z,4.6
2016-12-29T00:11:01.040Z,4.6
2016-12-29T00:11:11.034Z,4.6
2016-12-29T00:11:21.025Z,4.6
2016-12-29T00:11:31.020Z,4.6
2016-12-29T00:11:41.015Z,4.6
2016-12-29T00:11:51.009Z,4.6
2016-12-29T00:12:01.000Z,4.6
2016-12-29T00:12:10.999Z,4.6
2016-12-29T00:12:20.988Z,4.5
2016-12-29T00:12:30.985Z,4.5
2016-12-29T00:12:40.973Z,4.5
2016-12-29T00:12:50.976Z,4.5
2016-12-29T00:13:00.965Z,4.5
2016-12-29T00:13:10.954Z,4.5
2016-12-29T00:13:20.951Z,4.5
2016-12-29T00:13:30.943Z,4.5
2016-12-29T00:13:40.940Z,4.5
2016-12-29T00:13:50.933Z,4.5
2016-12-29T00:14:00.927Z,4.5
2016-12-29T00:14:10.921Z,4.5
2016-12-29T00:14:20.911Z,4.5
2016-12-29T00:14:30.903Z,4.5
2016-12-29T00:14:40.900Z,4.5
2016-12-29T00:14:50.891Z,4.5
2016-12-29T00:15:00.888Z,4.5
2016-12-29T00:15:10.882Z,4.5
2016-12-29T00:15:20.872Z,4.5
2016-12-29T00:15:30.861Z,4.5
2016-12-29T00:15:40.857Z,4.5
2016-12-29T00:15:50.850Z,4.5
2016-12-29T00:16:00.846Z,4.5
2016-12-29T00:16:10.840Z,4.5
2016-12-29T00:16:20.836Z,4.5
2016-12-29T00:16:30.831Z,4.5
2016-12-29T00:16:40.822Z,4.5
2016-12-29T00:16:50.952Z,4.5
2016-12-29T00:17:00.805Z,4.5
2016-12-29T00:17:10.801Z,4.4
2016-12-29T00:17:20.795Z,4.4
2016-12-29T00:17:30.925Z,4.4
2016-12-29T00:17:40.782Z,4.4
2016-12-29T00:17:50.798Z,4.4
2016-12-29T00:18:00.773Z,4.4
2016-12-29T00:18:10.764Z,4.4
2016-12-29T00:18:20.757Z,4.4
2016-12-29T00:18:30.749Z,4.4
2016-12-29T00:18:40.747Z,4.4
2016-12-29T00:18:50.738Z,4.4
2016-12-29T00:19:00.731Z,4.4
2016-12-29T00:19:10.854Z,4.4
2016-12-29T00:19:20.718Z,4.4
2016-12-29T00:19:30.713Z,4.4
2016-12-29T00:19:40.708Z,4.4
2016-12-29T00:19:50.697Z,4.4
2016-12-29T00:20:00.690Z,4.4
2016-12-29T00:20:10.686Z,4.3
2016-12-29T00:20:20.678Z,4.3
2016-12-29T00:20:30.673Z,4.3
2016-12-29T00:20:40.666Z,4.3
2016-12-29T00:20:50.660Z,4.3
2016-12-29T00:21:00.655Z,4.3
2016-12-29T00:21:10.648Z,4.3
2016-12-29T00:21:20.643Z,4.3
2016-12-29T00:21:30.636Z,4.3
2016-12-29T00:21:40.628Z,4.3
2016-12-29T00:21:50.626Z,4.3
2016-12-29T00:22:00.618Z,4.3
2016-12-29T00:22:10.617Z,4.3
2016-12-29T00:22:20.604Z,4.3
2016-12-29T00:22:30.599Z,4.3
2016-12-29T00:22:40.586Z,4.3
2016-12-29T00:22:50.583Z,4.3
2016-12-29T00:23:00.581Z,4.3
2016-12-29T00:23:10.569Z,4.3
2016-12-29T00:23:20.585Z,4.3
2016-12-29T00:23:30.558Z,4.3
2016-12-29T00:23:40.685Z,4.3
2016-12-29T00:23:50.962Z,4.3
2016-12-29T00:24:00.538Z,4.3
2016-12-29T00:24:10.533Z,4.3
2016-12-29T00:24:20.523Z,4.3
2016-12-29T00:24:30.520Z,4.3
2016-12-29T00:24:40.639Z,4.3
2016-12-29T00:24:50.513Z,4.3
2016-12-29T00:25:00.498Z,4.3
2016-12-29T00:25:10.493Z,4.3
2016-12-29T00:25:20.487Z,4.3
2016-12-29T00:25:30.478Z,4.3
2016-12-29T00:25:40.477Z,4.2
2016-12-29T00:25:50.463Z,4.2
2016-12-29T00:26:00.465Z,4.3
2016-12-29T00:26:10.477Z,4.3
2016-12-29T00:26:20.447Z,4.2
2016-12-29T00:26:30.441Z,4.2
2016-12-29T00:26:40.435Z,4.2
2016-12-29T00:26:50.425Z,4.2
2016-12-29T00:27:00.425Z,4.3
2016-12-29T00:27:10.421Z,4.3
2016-12-29T00:27:20.406Z,4.3
2016-12-29T00:27:30.402Z,4.3
2016-12-29T00:27:40.397Z,4.3
2016-12-29T00:27:50.390Z,4.3
2016-12-29T00:28:00.380Z,4.3
2016-12-29T00:28:10.385Z,4.3
2016-12-29T00:28:20.374Z,4.2
2016-12-29T00:28:30.363Z,4.2
2016-12-29T00:28:40.359Z,4.2
2016-12-29T00:28:50.351Z,4.2
2016-12-29T00:29:00.349Z,4.2
2016-12-29T00:29:10.339Z,4.2
2016-12-29T00:29:20.332Z,4.2
2016-12-29T00:29:30.322Z,4.2
2016-12-29T00:29:40.316Z,4.2
2016-12-29T00:29:50.310Z,4.2
2016-12-29T00:30:00.307Z,4.2
2016-12-29T00:30:10.298Z,4.2
2016-12-29T00:30:20.294Z,4.2
2016-12-29T00:30:30.283Z,4.2
2016-12-29T00:30:40.277Z,4.2
2016-12-29T00:30:50.271Z,4.2
2016-12-29T00:31:00.264Z,4.2
2016-12-29T00:31:10.264Z,4.2
2016-12-29T00:31:20.260Z,4.2
2016-12-29T00:31:30.246Z,4.1
2016-12-29T00:31:40.243Z,4.2
2016-12-29T00:31:50.231Z,4.1
2016-12-29T00:32:00.253Z,4.1
2016-12-29T00:32:10.218Z,4.1
2016-12-29T00:32:20.216Z,4.1
2016-12-29T00:32:30.209Z,4.1
2016-12-29T00:32:40.202Z,4.1
2016-12-29T00:32:50.199Z,4.1
2016-12-29T00:33:00.610Z,4.1
2016-12-29T00:33:10.182Z,4.1
2016-12-29T00:33:20.176Z,4.1
2016-12-29T00:33:30.194Z,4.1
2016-12-29T00:33:40.166Z,4.1
2016-12-29T00:33:50.154Z,4.1
2016-12-29T00:34:00.151Z,4.1
2016-12-29T00:34:10.146Z,4.1
2016-12-29T00:34:20.141Z,4.1
2016-12-29T00:34:30.128Z,4.1
2016-12-29T00:34:40.127Z,4.1
2016-12-29T00:34:50.117Z,4.1
2016-12-29T00:35:00.110Z,4.1
2016-12-29T00:35:10.101Z,4.1
2016-12-29T00:35:20.099Z,4
2016-12-29T00:35:30.093Z,4
2016-12-29T00:35:40.087Z,4
2016-12-29T00:35:50.080Z,4
2016-12-29T00:36:00.072Z,4
2016-12-29T00:36:10.063Z,4
2016-12-29T00:36:20.055Z,4
2016-12-29T00:36:30.054Z,4
2016-12-29T00:36:40.046Z,4
2016-12-29T00:36:50.041Z,4
2016-12-29T00:37:00.031Z,4
2016-12-29T00:37:10.025Z,4
2016-12-29T00:37:20.015Z,4
2016-12-29T00:37:30.017Z,4
2016-12-29T00:37:40.004Z,4
2016-12-29T00:37:50.001Z,4
2016-12-29T00:37:59.993Z,4
2016-12-29T00:38:09.987Z,4
2016-12-29T00:38:19.985Z,4
2016-12-29T00:38:29.974Z,4
2016-12-29T00:38:39.964Z,4
2016-12-29T00:38:49.961Z,4
2016-12-29T00:39:00.090Z,4
2016-12-29T00:39:09.949Z,3.9
2016-12-29T00:39:19.944Z,3.9
2016-12-29T00:39:29.937Z,3.9
2016-12-29T00:39:39.933Z,4
2016-12-29T00:39:49.926Z,3.9
2016-12-29T00:39:59.920Z,3.9
2016-12-29T00:40:10.044Z,4
2016-12-29T00:40:19.916Z,4
2016-12-29T00:40:29.896Z,3.9
2016-12-29T00:40:39.889Z,3.9
2016-12-29T00:40:49.883Z,3.9
2016-12-29T00:40:59.876Z,3.9
2016-12-29T00:41:09.870Z,3.9
2016-12-29T00:41:19.868Z,3.9
2016-12-29T00:41:29.855Z,3.9
2016-12-29T00:41:39.849Z,3.8
2016-12-29T00:41:49.847Z,3.8
2016-12-29T00:41:59.838Z,3.8
2016-12-29T00:42:09.831Z,3.9
2016-12-29T00:42:19.828Z,3.9
2016-12-29T00:42:29.854Z,3.8
2016-12-29T00:42:39.813Z,3.8
2016-12-29T00:42:49.809Z,3.8
2016-12-29T00:42:59.808Z,3.8
2016-12-29T00:43:09.793Z,3.8
2016-12-29T00:43:19.803Z,3.8
2016-12-29T00:43:29.783Z,3.8
2016-12-29T00:43:39.779Z,3.8
2016-12-29T00:43:49.902Z,3.8
2016-12-29T00:43:59.760Z,3.8
2016-12-29T00:44:09.751Z,3.8
2016-12-29T00:44:19.746Z,3.8
2016-12-29T00:44:29.741Z,3.8
2016-12-29T00:44:39.736Z,3.8
2016-12-29T00:44:49.729Z,3.8
2016-12-29T00:44:59.721Z,3.8
2016-12-29T00:45:09.716Z,3.8
2016-12-29T00:45:19.705Z,3.8
2016-12-29T00:45:29.703Z,3.8
2016-12-29T00:45:39.694Z,3.8
2016-12-29T00:45:49.690Z,3.8
2016-12-29T00:45:59.681Z,3.8
2016-12-29T00:46:09.684Z,3.8
2016-12-29T00:46:19.668Z,3.8
2016-12-29T00:46:29.796Z,3.8
2016-12-29T00:46:39.658Z,3.8
2016-12-29T00:46:49.651Z,3.8
2016-12-29T00:46:59.640Z,3.8
2016-12-29T00:47:09.634Z,3.8
2016-12-29T00:47:19.627Z,3.8
2016-12-29T00:47:29.622Z,3.8
2016-12-29T00:47:39.614Z,3.8
2016-12-29T00:47:49.610Z,3.8
2016-12-29T00:47:59.629Z,3.8
2016-12-29T00:48:09.597Z,3.8
2016-12-29T00:48:19.591Z,3.8
2016-12-29T00:48:29.585Z,3.8
2016-12-29T00:48:39.580Z,3.8
2016-12-29T00:48:49.572Z,3.8
2016-12-29T00:48:59.563Z,3.8
2016-12-29T00:49:09.556Z,3.8
2016-12-29T00:49:19.552Z,3.8
2016-12-29T00:49:29.545Z,3.8
2016-12-29T00:49:39.542Z,3.8
2016-12-29T00:49:49.532Z,3.7
2016-12-29T00:49:59.527Z,3.7
2016-12-29T00:50:09.519Z,3.7
2016-12-29T00:50:19.514Z,3.7
2016-12-29T00:50:29.508Z,3.7
2016-12-29T00:50:39.500Z,3.7
2016-12-29T00:50:49.495Z,3.7
2016-12-29T00:50:59.485Z,3.7
2016-12-29T00:51:09.477Z,3.7
2016-12-29T00:51:19.614Z,3.6
2016-12-29T00:51:29.470Z,3.6
2016-12-29T00:51:39.467Z,3.6
2016-12-29T00:51:49.457Z,3.6
2016-12-29T00:51:59.449Z,3.6
2016-12-29T00:52:09.442Z,3.6
2016-12-29T00:52:19.436Z,3.6
2016-12-29T00:52:29.433Z,3.6
2016-12-29T00:52:39.423Z,3.6
2016-12-29T00:52:49.419Z,3.6
2016-12-29T00:52:59.408Z,3.7
2016-12-29T00:53:09.401Z,3.7
2016-12-29T00:53:19.395Z,3.6
2016-12-29T00:53:29.390Z,3.7
2016-12-29T00:53:39.383Z,3.6
2016-12-29T00:53:49.373Z,3.6
2016-12-29T00:53:59.373Z,3.6
2016-12-29T00:54:09.364Z,3.6
2016-12-29T00:54:19.358Z,3.6
2016-12-29T00:54:29.352Z,3.6
2016-12-29T00:54:39.345Z,3.6
2016-12-29T00:54:49.338Z,3.6
2016-12-29T00:54:59.331Z,3.6
2016-12-29T00:55:09.323Z,3.6
2016-12-29T00:55:19.319Z,3.6
2016-12-29T00:55:29.309Z,3.6
2016-12-29T00:55:39.307Z,3.6
2016-12-29T00:55:49.300Z,3.6
2016-12-29T00:55:59.291Z,3.6
2016-12-29T00:56:09.423Z,3.6
2016-12-29T00:56:19.281Z,3.6
2016-12-29T00:56:29.276Z,3.6
2016-12-29T00:56:39.268Z,3.6
2016-12-29T00:56:49.262Z,3.6
2016-12-29T00:56:59.256Z,3.6
2016-12-29T00:57:09.246Z,3.6
2016-12-29T00:57:19.244Z,3.6
2016-12-29T00:57:29.262Z,3.6
2016-12-29T00:57:39.226Z,3.6
2016-12-29T00:57:49.224Z,3.6
2016-12-29T00:57:59.213Z,3.6
2016-12-29T00:58:09.206Z,3.6
2016-12-29T00:58:19.200Z,3.6
2016-12-29T00:58:29.196Z,3.6
2016-12-29T00:58:39.190Z,3.6
2016-12-29T00:58:49.184Z,3.6
2016-12-29T00:58:59.174Z,3.6
2016-12-29T00:59:09.174Z,3.6
2016-12-29T00:59:19.161Z,3.6
2016-12-29T00:59:29.157Z,3.6
2016-12-29T00:59:39.149Z,3.6
2016-12-29T00:59:49.143Z,3.6
2016-12-29T00:59:59.137Z,3.5
2016-12-29T01:00:09.128Z,3.5
2016-12-29T01:00:19.125Z,3.5
2016-12-29T01:00:29.118Z,3.5
2016-12-29T01:00:39.108Z,3.6
2016-12-29T01:00:49.104Z,3.5
2016-12-29T01:00:59.096Z,3.5
2016-12-29T01:01:09.088Z,3.5
2016-12-29T01:01:19.085Z,3.5
2016-12-29T01:01:29.079Z,3.5
2016-12-29T01:01:39.074Z,3.5
2016-12-29T01:01:49.060Z,3.5
2016-12-29T01:01:59.061Z,3.5
2016-12-29T01:02:09.051Z,3.5
2016-12-29T01:02:19.047Z,3.5
2016-12-29T01:02:29.038Z,3.5
2016-12-29T01:02:39.035Z,3.5
2016-12-29T01:02:49.030Z,3.5
2016-12-29T01:02:59.017Z,3.5
2016-12-29T01:03:09.016Z,3.5
2016-12-29T01:03:19.005Z,3.5
2016-12-29T01:03:29.036Z,3.5
2016-12-29T01:03:38.995Z,3.5
2016-12-29T01:03:48.987Z,3.4
2016-12-29T01:03:58.978Z,3.4
2016-12-29T01:04:08.972Z,3.4
2016-12-29T01:04:18.968Z,3.4
2016-12-29T01:04:28.959Z,3.4
2016-12-29T01:04:38.956Z,3.4
2016-12-29T01:04:48.949Z,3.4
2016-12-29T01:04:58.943Z,3.4
2016-12-29T01:05:08.937Z,3.4
2016-12-29T01:05:18.931Z,3.4
2016-12-29T01:05:29.186Z,3.4
2016-12-29T01:05:38.917Z,3.4
2016-12-29T01:05:48.908Z,3.4
2016-12-29T01:05:58.899Z,3.4
2016-12-29T01:06:08.897Z,3.4
2016-12-29T01:06:18.891Z,3.4
2016-12-29T01:06:28.879Z,3.4
2016-12-29T01:06:38.876Z,3.4
2016-12-29T01:06:48.869Z,3.4
2016-12-29T01:06:58.860Z,3.4
2016-12-29T01:07:08.854Z,3.4
2016-12-29T01:07:18.869Z,3.3
2016-12-29T01:07:28.841Z,3.3
2016-12-29T01:07:38.834Z,3.3
2016-12-29T01:07:48.829Z,3.3
2016-12-29T01:07:58.826Z,3.3
2016-12-29T01:08:08.819Z,3.3
2016-12-29T01:08:18.819Z,3.3
2016-12-29T01:08:28.808Z,3.3
2016-12-29T01:08:38.795Z,3.3
2016-12-29T01:08:48.788Z,3.3
2016-12-29T01:08:58.788Z,3.3
2016-12-29T01:09:08.781Z,3.3
2016-12-29T01:09:18.770Z,3.3
2016-12-29T01:09:28.765Z,3.3
2016-12-29T01:09:38.753Z,3.3
2016-12-29T01:09:48.754Z,3.3
2016-12-29T01:09:58.741Z,3.3
2016-12-29T01:10:08.739Z,3.3
2016-12-29T01:10:18.728Z,3.3
2016-12-29T01:10:28.726Z,3.3
2016-12-29T01:10:38.716Z,3.3
2016-12-29T01:10:48.712Z,3.2
2016-12-29T01:10:58.708Z,3.3
2016-12-29T01:11:08.697Z,3.3
2016-12-29T01:11:18.691Z,3.3
2016-12-29T01:11:28.685Z,3.3
2016-12-29T01:11:38.679Z,3.2
2016-12-29T01:11:48.675Z,3.2
2016-12-29T01:11:58.666Z,3.2
2016-12-29T01:12:08.658Z,3.2
2016-12-29T01:12:18.651Z,3.2
2016-12-29T01:12:28.645Z,3.2
2016-12-29T01:12:38.638Z,3.2
2016-12-29T01:12:48.633Z,3.2
2016-12-29T01:12:58.632Z,3.2
2016-12-29T01:13:08.619Z,3.2
2016-12-29T01:13:18.621Z,3.2
2016-12-29T01:13:28.607Z,3.2
2016-12-29T01:13:38.600Z,3.2
2016-12-29T01:13:48.598Z,3.2
2016-12-29T01:13:58.583Z,3.2
2016-12-29T01:14:08.582Z,3.2
2016-12-29T01:14:18.579Z,3.1
2016-12-29T01:14:28.568Z,3.1
2016-12-29T01:14:38.562Z,3.2
2016-12-29T01:14:48.975Z,3.1
2016-12-29T01:14:58.546Z,3.1
2016-12-29T01:15:08.545Z,3.1
2016-12-29T01:15:18.531Z,3.1
2016-12-29T01:15:28.531Z,3.1
2016-12-29T01:15:38.521Z,3.1
2016-12-29T01:15:48.521Z,3.1
2016-12-29T01:15:58.508Z,3.1
2016-12-29T01:16:08.503Z,3.1
2016-12-29T01:16:18.492Z,3.1
2016-12-29T01:16:28.485Z,3.1
2016-12-29T01:16:38.490Z,3.1
2016-12-29T01:16:48.478Z,3.1
2016-12-29T01:16:58.467Z,3.1
2016-12-29T01:17:08.464Z,3.1
2016-12-29T01:17:18.460Z,3.1
2016-12-29T01:17:28.454Z,3.1
2016-12-29T01:17:38.441Z,3.1
2016-12-29T01:17:48.434Z,3.1
2016-12-29T01:17:58.434Z,3.1
2016-12-29T01:18:08.426Z,3.1
2016-12-29T01:18:18.421Z,3.1
2016-12-29T01:18:28.407Z,3.1
2016-12-29T01:18:38.406Z,3.1
2016-12-29T01:18:48.397Z,3.1
2016-12-29T01:18:58.394Z,3.1
2016-12-29T01:19:08.584Z,3.1
2016-12-29T01:19:18.375Z,3.1
2016-12-29T01:19:28.373Z,3.1
2016-12-29T01:19:38.366Z,3.1
2016-12-29T01:19:48.355Z,3.1
2016-12-29T01:19:58.351Z,3.1
2016-12-29T01:20:08.347Z,3.1
2016-12-29T01:20:18.344Z,3.1
2016-12-29T01:20:28.334Z,3.1
2016-12-29T01:20:38.331Z,3.1
2016-12-29T01:20:48.319Z,3.1
2016-12-29T01:20:58.312Z,3.1
2016-12-29T01:21:08.311Z,3
2016-12-29T01:21:18.301Z,3
2016-12-29T01:21:28.320Z,3
2016-12-29T01:21:38.288Z,3
2016-12-29T01:21:48.281Z,3
2016-12-29T01:21:58.271Z,3
2016-12-29T01:22:08.267Z,3
2016-12-29T01:22:18.262Z,3
2016-12-29T01:22:28.257Z,3
2016-12-29T01:22:38.247Z,3
2016-12-29T01:22:48.244Z,3
2016-12-29T01:22:58.232Z,3
2016-12-29T01:23:08.226Z,3
2016-12-29T01:23:18.221Z,3
2016-12-29T01:23:28.213Z,3
2016-12-29T01:23:38.212Z,3
2016-12-29T01:23:48.201Z,3
2016-12-29T01:23:58.197Z,3
2016-12-29T01:24:08.191Z,3
2016-12-29T01:24:18.178Z,3
2016-12-29T01:24:28.200Z,3
2016-12-29T01:24:38.172Z,3
2016-12-29T01:24:48.168Z,2.9
2016-12-29T01:24:58.158Z,3
2016-12-29T01:25:08.146Z,3
2016-12-29T01:25:18.143Z,3
2016-12-29T01:25:28.135Z,3
2016-12-29T01:25:38.131Z,2.9
2016-12-29T01:25:48.123Z,2.9
2016-12-29T01:25:58.151Z,2.9
2016-12-29T01:26:08.109Z,2.9
2016-12-29T01:26:18.107Z,2.9
2016-12-29T01:26:28.097Z,2.9
2016-12-29T01:26:38.090Z,2.9
2016-12-29T01:26:48.084Z,2.9
2016-12-29T01:26:58.074Z,2.9
2016-12-29T01:27:08.072Z,2.9
2016-12-29T01:27:18.060Z,2.9
2016-12-29T01:27:28.057Z,2.9
2016-12-29T01:27:38.058Z,2.9
2016-12-29T01:27:48.047Z,2.9
2016-12-29T01:27:58.039Z,2.9
2016-12-29T01:28:08.032Z,2.9
2016-12-29T01:28:18.026Z,2.9
2016-12-29T01:28:28.025Z,2.9
2016-12-29T01:28:38.013Z,2.9
2016-12-29T01:28:48.003Z,2.9
2016-12-29T01:28:57.998Z,2.9
2016-12-29T01:29:07.990Z,2.9
2016-12-29T01:29:17.985Z,2.9
2016-12-29T01:29:27.974Z,2.9
2016-12-29T01:29:37.974Z,2.9
2016-12-29T01:29:47.966Z,2.9
2016-12-29T01:29:57.959Z,2.9
2016-12-29T01:30:07.953Z,2.9
2016-12-29T01:30:17.947Z,2.9
2016-12-29T01:30:27.937Z,2.9
2016-12-29T01:30:37.932Z,2.9
2016-12-29T01:30:47.922Z,2.9
2016-12-29T01:30:57.919Z,2.9
2016-12-29T01:31:07.916Z,2.9
2016-12-29T01:31:17.909Z,2.9
2016-12-29T01:31:27.900Z,2.9
2016-12-29T01:31:37.898Z,2.9
2016-12-29T01:31:47.883Z,2.9
2016-12-29T01:31:57.880Z,2.9
2016-12-29T01:32:07.872Z,2.9
2016-12-29T01:32:17.869Z,2.9
2016-12-29T01:32:27.862Z,2.9
2016-12-29T01:32:37.850Z,2.9
2016-12-29T01:32:47.843Z,2.9
2016-12-29T01:32:57.841Z,2.9
2016-12-29T01:33:07.963Z,2.9
2016-12-29T01:33:17.829Z,2.9
2016-12-29T01:33:27.846Z,2.9
2016-12-29T01:33:37.820Z,2.9
2016-12-29T01:33:47.813Z,2.9
2016-12-29T01:33:57.796Z,2.9
2016-12-29T01:34:07.791Z,2.9
2016-12-29T01:34:17.790Z,2.9
2016-12-29T01:34:27.782Z,2.8
2016-12-29T01:34:37.776Z,2.8
2016-12-29T01:34:47.784Z,2.8
2016-12-29T01:34:57.758Z,2.8
2016-12-29T01:35:07.755Z,2.8
2016-12-29T01:35:17.747Z,2.8
2016-12-29T01:35:27.744Z,2.8
2016-12-29T01:35:37.734Z,2.8
2016-12-29T01:35:47.731Z,2.8
2016-12-29T01:35:57.720Z,2.8
2016-12-29T01:36:07.737Z,2.8
2016-12-29T01:36:17.710Z,2.8
2016-12-29T01:36:27.704Z,2.8
2016-12-29T01:36:37.697Z,2.8
2016-12-29T01:36:47.691Z,2.8
2016-12-29T01:36:57.709Z,2.8
2016-12-29T01:37:07.673Z,2.8
2016-12-29T01:37:18.101Z,2.8
2016-12-29T01:37:27.668Z,2.8
2016-12-29T01:37:37.660Z,2.8
2016-12-29T01:37:47.668Z,2.8
2016-12-29T01:37:57.639Z,2.8
2016-12-29T01:38:07.640Z,2.8
2016-12-29T01:38:17.639Z,2.8
2016-12-29T01:38:27.623Z,2.8
2016-12-29T01:38:37.617Z,2.8
2016-12-29T01:38:47.747Z,2.8
2016-12-29T01:38:57.607Z,2.8
2016-12-29T01:39:07.597Z,2.8
2016-12-29T01:39:17.585Z,2.8
2016-12-29T01:39:27.715Z,2.7
2016-12-29T01:39:37.579Z,2.8
2016-12-29T01:39:47.570Z,2.8
2016-12-29T01:39:57.560Z,2.8
2016-12-29T01:40:07.561Z,2.8
2016-12-29T01:40:17.555Z,2.7
2016-12-29T01:40:27.543Z,2.7
2016-12-29T01:40:37.536Z,2.7
2016-12-29T01:40:47.680Z,2.7
2016-12-29T01:40:57.527Z,2.7
2016-12-29T01:41:07.520Z,2.7
2016-12-29T01:41:17.516Z,2.7
2016-12-29T01:41:27.511Z,2.7
2016-12-29T01:41:37.496Z,2.7
2016-12-29T01:41:47.491Z,2.7
2016-12-29T01:41:57.488Z,2.7
2016-12-29T01:42:07.481Z,2.7
2016-12-29T01:42:17.475Z,2.7
2016-12-29T01:42:27.467Z,2.7
2016-12-29T01:42:37.458Z,2.7
2016-12-29T01:42:47.460Z,2.7
2016-12-29T01:42:57.446Z,2.7
2016-12-29T01:43:07.442Z,2.7
2016-12-29T01:43:17.431Z,2.7
2016-12-29T01:43:27.424Z,2.7
2016-12-29T01:43:37.418Z,2.7
2016-12-29T01:43:47.416Z,2.7
2016-12-29T01:43:57.539Z,2.7
2016-12-29T01:44:07.402Z,2.7
2016-12-29T01:44:17.393Z,2.7
2016-12-29T01:44:27.387Z,2.7
2016-12-29T01:44:37.375Z,2.7
2016-12-29T01:44:47.378Z,2.7
2016-12-29T01:44:57.370Z,2.7
2016-12-29T01:45:07.362Z,2.7
2016-12-29T01:45:17.357Z,2.7
2016-12-29T01:45:27.348Z,2.7
2016-12-29T01:45:37.341Z,2.7
2016-12-29T01:45:47.334Z,2.7
2016-12-29T01:45:57.323Z,2.7
2016-12-29T01:46:07.323Z,2.7
2016-12-29T01:46:17.343Z,2.7
2016-12-29T01:46:27.305Z,2.7
2016-12-29T01:46:37.306Z,2.7
2016-12-29T01:46:47.292Z,2.7
2016-12-29T01:46:57.288Z,2.7
2016-12-29T01:47:07.279Z,2.7
2016-12-29T01:47:17.273Z,2.7
2016-12-29T01:47:27.269Z,2.7
2016-12-29T01:47:37.264Z,2.7
2016-12-29T01:47:47.278Z,2.7
2016-12-29T01:47:57.249Z,2.7
2016-12-29T01:48:07.241Z,2.7
2016-12-29T01:48:17.237Z,2.7
2016-12-29T01:48:27.231Z,2.7
2016-12-29T01:48:37.248Z,2.7
2016-12-29T01:48:47.215Z,2.7
2016-12-29T01:48:57.208Z,2.7
2016-12-29T01:49:07.196Z,2.7
2016-12-29T01:49:17.198Z,2.7
2016-12-29T01:49:27.193Z,2.7
2016-12-29T01:49:37.187Z,2.7
2016-12-29T01:49:47.173Z,2.7
2016-12-29T01:49:57.168Z,2.7
2016-12-29T01:50:07.161Z,2.7
2016-12-29T01:50:17.155Z,2.7
2016-12-29T01:50:27.150Z,2.7
2016-12-29T01:50:37.144Z,2.6
2016-12-29T01:50:47.140Z,2.7
2016-12-29T01:50:57.128Z,2.7
2016-12-29T01:51:07.122Z,2.6
2016-12-29T01:51:17.115Z,2.6
2016-12-29T01:51:27.111Z,2.6
2016-12-29T01:51:37.103Z,2.7
2016-12-29T01:51:47.098Z,2.6
2016-12-29T01:51:57.352Z,2.7
2016-12-29T01:52:07.083Z,2.7
2016-12-29T01:52:17.071Z,2.7
2016-12-29T01:52:27.069Z,2.7
2016-12-29T01:52:37.062Z,2.7
2016-12-29T01:52:47.057Z,2.7
2016-12-29T01:52:57.049Z,2.7
2016-12-29T01:53:07.044Z,2.7
2016-12-29T01:53:17.472Z,2.7
2016-12-29T01:53:27.029Z,2.7
2016-12-29T01:53:37.024Z,2.7
2016-12-29T01:53:47.021Z,2.7
2016-12-29T01:53:57.034Z,2.7
2016-12-29T01:54:07.007Z,2.7
2016-12-29T01:54:16.996Z,2.7
2016-12-29T01:54:26.993Z,2.7
2016-12-29T01:54:36.981Z,2.7
2016-12-29T01:54:46.979Z,2.7
2016-12-29T01:54:56.973Z,2.6
2016-12-29T01:55:06.967Z,2.6
2016-12-29T01:55:16.961Z,2.6
2016-12-29T01:55:26.955Z,2.6
2016-12-29T01:55:36.946Z,2.6
2016-12-29T01:55:46.939Z,2.6
2016-12-29T01:55:56.930Z,2.7
2016-12-29T01:56:06.928Z,2.6
2016-12-29T01:56:16.919Z,2.6
2016-12-29T01:56:26.913Z,2.6
2016-12-29T01:56:36.904Z,2.6
2016-12-29T01:56:46.898Z,2.6
2016-12-29T01:56:56.894Z,2.6
2016-12-29T01:57:06.885Z,2.6
2016-12-29T01:57:16.879Z,2.6
2016-12-29T01:57:26.871Z,2.6
2016-12-29T01:57:36.904Z,2.6
2016-12-29T01:57:46.856Z,2.6
2016-12-29T01:57:56.850Z,2.6
2016-12-29T01:58:06.847Z,2.6
2016-12-29T01:58:16.840Z,2.6
2016-12-29T01:58:26.835Z,2.6
2016-12-29T01:58:36.828Z,2.6
2016-12-29T01:58:46.822Z,2.5
2016-12-29T01:58:56.815Z,2.6
2016-12-29T01:59:06.805Z,2.6
2016-12-29T01:59:16.803Z,2.6
2016-12-29T01:59:26.796Z,2.5
2016-12-29T01:59:36.787Z,2.5
2016-12-29T01:59:46.779Z,2.5
2016-12-29T01:59:56.772Z,2.5
2016-12-29T02:00:06.769Z,2.5
2016-12-29T02:00:16.758Z,2.5
2016-12-29T02:00:26.755Z,2.5
2016-12-29T02:00:36.749Z,2.5
2016-12-29T02:00:46.738Z,2.5
2016-12-29T02:00:56.733Z,2.5
2016-12-29T02:01:06.724Z,2.5
2016-12-29T02:01:16.720Z,2.5
2016-12-29T02:01:26.713Z,2.5
2016-12-29T02:01:36.707Z,2.5
2016-12-29T02:01:46.701Z,2.5
2016-12-29T02:01:56.698Z,2.5
2016-12-29T02:02:06.690Z,2.5
2016-12-29T02:02:16.681Z,2.5
2016-12-29T02:02:26.674Z,2.5
2016-12-29T02:02:36.668Z,2.5
2016-12-29T02:02:46.664Z,2.5
2016-12-29T02:02:56.655Z,2.5
2016-12-29T02:03:06.649Z,2.5
2016-12-29T02:03:16.638Z,2.5
2016-12-29T02:03:26.637Z,2.4
2016-12-29T02:04:35.089Z,2.4
2016-12-29T02:05:06.184Z,2.5
2016-12-29T02:05:16.153Z,2.5
2016-12-29T02:05:26.141Z,2.5
2016-12-29T02:05:36.143Z,2.5
2016-12-29T02:05:46.133Z,2.4
2016-12-29T02:05:56.125Z,2.4
2016-12-29T02:06:06.120Z,2.4
2016-12-29T02:06:16.240Z,2.5
2016-12-29T02:06:26.101Z,2.4
2016-12-29T02:06:36.099Z,2.4
2016-12-29T02:06:46.090Z,2.4
2016-12-29T02:06:56.109Z,2.4
2016-12-29T02:07:06.073Z,2.4
2016-12-29T02:07:16.074Z,2.4
2016-12-29T02:07:26.063Z,2.4
2016-12-29T02:07:36.052Z,2.4
2016-12-29T02:07:46.051Z,2.4
2016-12-29T02:07:56.045Z,2.4
2016-12-29T02:08:06.039Z,2.4
2016-12-29T02:08:16.031Z,2.4
2016-12-29T02:08:26.026Z,2.4
2016-12-29T02:08:36.019Z,2.4
2016-12-29T02:08:46.010Z,2.4
2016-12-29T02:08:56.002Z,2.4
2016-12-29T02:09:05.998Z,2.4
2016-12-29T02:09:15.993Z,2.4
2016-12-29T02:09:26.404Z,2.4
2016-12-29T02:09:35.980Z,2.4
2016-12-29T02:09:45.973Z,2.4
2016-12-29T02:09:55.967Z,2.4
2016-12-29T02:10:05.958Z,2.4
2016-12-29T02:10:16.097Z,2.4
2016-12-29T02:10:25.942Z,2.4
2016-12-29T02:10:35.950Z,2.4
2016-12-29T02:10:45.929Z,2.4
2016-12-29T02:10:55.924Z,2.5
2016-12-29T02:11:05.917Z,2.5
2016-12-29T02:11:15.908Z,2.4
2016-12-29T02:11:26.033Z,2.5
2016-12-29T02:11:35.896Z,2.4
2016-12-29T02:11:45.892Z,2.4
2016-12-29T02:11:55.883Z,2.5
2016-12-29T02:12:05.876Z,2.5
2016-12-29T02:12:15.874Z,2.5
2016-12-29T02:12:25.864Z,2.4
2016-12-29T02:12:35.859Z,2.4
2016-12-29T02:12:45.852Z,2.4
2016-12-29T02:12:55.849Z,2.4
2016-12-29T02:13:05.841Z,2.4
2016-12-29T02:13:15.842Z,2.4
2016-12-29T02:13:25.827Z,2.4
2016-12-29T02:13:35.819Z,2.4
2016-12-29T02:13:45.811Z,2.4
2016-12-29T02:13:55.809Z,2.4
2016-12-29T02:14:05.797Z,2.4
2016-12-29T02:14:15.795Z,2.3
2016-12-29T02:14:25.788Z,2.3
2016-12-29T02:14:35.778Z,2.3
2016-12-29T02:14:45.772Z,2.3
2016-12-29T02:14:55.765Z,2.3
2016-12-29T02:15:05.759Z,2.3
2016-12-29T02:15:15.754Z,2.3
2016-12-29T02:15:25.747Z,2.3
2016-12-29T02:15:35.743Z,2.3
2016-12-29T02:15:45.733Z,2.3
2016-12-29T02:15:55.728Z,2.3
2016-12-29T02:16:05.889Z,2.3
2016-12-29T02:16:15.714Z,2.3
2016-12-29T02:16:25.705Z,2.3
2016-12-29T02:16:35.829Z,2.3
2016-12-29T02:16:45.695Z,2.3
2016-12-29T02:16:55.715Z,2.3
2016-12-29T02:17:05.680Z,2.3
2016-12-29T02:17:15.673Z,2.3
2016-12-29T02:17:25.667Z,2.3
2016-12-29T02:17:35.660Z,2.3
2016-12-29T02:17:45.656Z,2.3
2016-12-29T02:17:55.648Z,2.3
2016-12-29T02:18:05.640Z,2.3
2016-12-29T02:18:15.633Z,2.3
2016-12-29T02:18:25.647Z,2.3
2016-12-29T02:18:35.623Z,2.3
2016-12-29T02:18:45.617Z,2.3
2016-12-29T02:18:55.607Z,2.3
2016-12-29T02:19:05.604Z,2.3
2016-12-29T02:19:15.592Z,2.3
2016-12-29T02:19:25.585Z,2.3
2016-12-29T02:19:35.720Z,2.3